메인 페이지
METAR-TAF:

METAR-TAF

공항 :

Churchill, 매니토바, 캐나다

위도: 58-44N, 경도: 094-04W, 고도: 28m

현재 날씨관측

예보는 48분 전, 09:00시(UTC)에 발표되었습니다.
서남서9kt
온도 -6°C
습도 79%
기압 1011 hPa
시정: 24.1km
고도 2100ft 상공 흐림

METAR: CYYQ 150900Z 24009KT 15SM OVC021 M06/M09 A2986 RMK SC8 SLP116

시각: 04:48 (09:48 UTC)

예보

예보는 4 시간 10분 전, 05:38시(UTC)에 발표되었습니다.
예보 대상 시간: 15일 06시부터 16일 06시까지 (UTC)
남남서6kt
시정: 10km
고도 2500ft 상공 흐림
일시적
15일 06시부터 15일 18시까지 (UTC)
고도 2000ft 상공 흐림
전환 중
15일 12시부터 15일 14시까지 (UTC)
12kt
15일 1800시부터 (UTC)
남남동12kt
시정: 10km
고도 2500ft 상공 구름 많음
고도 10000ft 상공 흐림
일시적
15일 18시부터 16일 04시까지 (UTC)
시정: 6.4km
고도 2000ft 상공 구름 많음
고도 10000ft 상공 흐림
약한눈
전환 중
15일 22시부터 15일 24시까지 (UTC)
북북동6kt
16일 0400시부터 (UTC)
북북서12kt
시정: 10km
고도 2500ft 상공 구름 많음
일시적
16일 04시부터 16일 06시까지 (UTC)
시정: 8.0km
고도 2000ft 상공 구름 많음
약한눈

TAF: CYYQ 150538Z 1506/1606 20006KT P6SM OVC025 TEMPO 1506/1518 OVC020 BECMG 1512/1514 18012KT FM151800 16012KT P6SM BKN025 OVC100 TEMPO 1518/1604 4SM -SN BKN020 OVC100 BECMG 1522/1524 02006KT FM160400 34012KT P6SM BKN025 TEMPO 1604/1606 5SM -SN BKN020 RMK NXT FCST BY 151200Z

4,000개 이상의 공항 관측 자료 및 예보 (METAR 및 TAF 보고).

지도상에서 검색 가능한 기상관측소가 노란 점과 빨간 점으로 표시되어 있습니다.

기상관측소 명을 보려면 표시 위로 마우스를 이동하세요.

날씨 관측과 예보를 보려면 클릭하세요.

지도 변경 : 확대하려면 엑스 표시가 있는 녹색 버튼, 축소하려면 빼기 표시가 있는 녹색 버튼, 다음 페이지의 지도를 보려면 녹색 화살표를 클릭하세요.


METAR-TAF: